sensor_id;sensor_type;location;lat;lon;timestamp;pressure;altitude;pressure_sealevel;temperature;humidity
10978;BME280;5542;48.272;10.794;2023-02-16T00:00:57;96702.66;;;0.09;94.30
10978;BME280;5542;48.272;10.794;2023-02-16T00:03:24;96703.22;;;0.03;94.57
10978;BME280;5542;48.272;10.794;2023-02-16T00:05:51;96708.16;;;-0.04;93.97
10978;BME280;5542;48.272;10.794;2023-02-16T00:08:18;96713.31;;;-0.04;93.89
10978;BME280;5542;48.272;10.794;2023-02-16T00:10:45;96703.78;;;-0.04;93.67
10978;BME280;5542;48.272;10.794;2023-02-16T00:13:32;96707.84;;;-0.01;93.59
10978;BME280;5542;48.272;10.794;2023-02-16T00:16:13;96703.22;;;0.03;92.59
10978;BME280;5542;48.272;10.794;2023-02-16T00:18:40;96709.06;;;-0.05;92.78
10978;BME280;5542;48.272;10.794;2023-02-16T00:21:06;96697.81;;;-0.04;92.78
10978;BME280;5542;48.272;10.794;2023-02-16T00:23:34;96706.50;;;-0.05;92.16
10978;BME280;5542;48.272;10.794;2023-02-16T00:26:01;96701.63;;;-0.08;92.11
10978;BME280;5542;48.272;10.794;2023-02-16T00:28:28;96700.00;;;-0.09;91.63
10978;BME280;5542;48.272;10.794;2023-02-16T00:30:54;96698.47;;;-0.12;91.48
10978;BME280;5542;48.272;10.794;2023-02-16T00:33:21;96687.06;;;-0.09;91.32
10978;BME280;5542;48.272;10.794;2023-02-16T00:35:47;96693.47;;;-0.13;91.22
10978;BME280;5542;48.272;10.794;2023-02-16T00:38:14;96691.00;;;-0.15;91.20
10978;BME280;5542;48.272;10.794;2023-02-16T00:40:42;96693.72;;;-0.16;90.99
10978;BME280;5542;48.272;10.794;2023-02-16T00:43:18;96691.00;;;-0.15;91.04
10978;BME280;5542;48.272;10.794;2023-02-16T00:45:48;96689.50;;;-0.17;90.76
10978;BME280;5542;48.272;10.794;2023-02-16T00:48:14;96696.47;;;-0.18;90.42
10978;BME280;5542;48.272;10.794;2023-02-16T00:50:41;96690.19;;;-0.25;90.17
10978;BME280;5542;48.272;10.794;2023-02-16T00:53:07;96688.97;;;-0.31;90.28
10978;BME280;5542;48.272;10.794;2023-02-16T00:55:36;96689.78;;;-0.30;90.01
10978;BME280;5542;48.272;10.794;2023-02-16T00:58:07;96690.59;;;-0.30;90.28
10978;BME280;5542;48.272;10.794;2023-02-16T01:00:39;96688.72;;;-0.28;89.97
10978;BME280;5542;48.272;10.794;2023-02-16T01:03:10;96695.91;;;-0.31;89.68
10978;BME280;5542;48.272;10.794;2023-02-16T01:05:36;96688.31;;;-0.33;89.69
10978;BME280;5542;48.272;10.794;2023-02-16T01:08:05;96689.22;;;-0.34;89.40
10978;BME280;5542;48.272;10.794;2023-02-16T01:10:52;96690.34;;;-0.36;89.09
10978;BME280;5542;48.272;10.794;2023-02-16T01:13:38;96692.94;;;-0.36;88.88
10978;BME280;5542;48.272;10.794;2023-02-16T01:16:12;96685.31;;;-0.38;89.19
10978;BME280;5542;48.272;10.794;2023-02-16T01:18:39;96687.75;;;-0.36;88.77
10978;BME280;5542;48.272;10.794;2023-02-16T01:21:06;96684.47;;;-0.38;88.83
10978;BME280;5542;48.272;10.794;2023-02-16T01:23:32;96683.94;;;-0.42;88.50
10978;BME280;5542;48.272;10.794;2023-02-16T01:25:59;96681.47;;;-0.43;88.63
10978;BME280;5542;48.272;10.794;2023-02-16T01:28:26;96681.47;;;-0.43;88.50
10978;BME280;5542;48.272;10.794;2023-02-16T01:30:54;96682.28;;;-0.43;88.34
10978;BME280;5542;48.272;10.794;2023-02-16T01:33:21;96677.41;;;-0.46;88.21
10978;BME280;5542;48.272;10.794;2023-02-16T01:35:48;96679.19;;;-0.46;87.80
10978;BME280;5542;48.272;10.794;2023-02-16T01:38:17;96675.09;;;-0.49;87.93
10978;BME280;5542;48.272;10.794;2023-02-16T01:40:50;96673.63;;;-0.52;87.85
10978;BME280;5542;48.272;10.794;2023-02-16T01:43:21;96678.38;;;-0.57;87.71
10978;BME280;5542;48.272;10.794;2023-02-16T01:45:56;96678.78;;;-0.61;87.62
10978;BME280;5542;48.272;10.794;2023-02-16T01:48:28;96676.47;;;-0.64;87.29
10978;BME280;5542;48.272;10.794;2023-02-16T01:51:00;96673.06;;;-0.65;87.33
10978;BME280;5542;48.272;10.794;2023-02-16T01:53:32;96671.44;;;-0.66;87.29
10978;BME280;5542;48.272;10.794;2023-02-16T01:56:03;96674.13;;;-0.67;87.29
10978;BME280;5542;48.272;10.794;2023-02-16T01:58:35;96667.34;;;-0.68;86.79
10978;BME280;5542;48.272;10.794;2023-02-16T02:04:26;96657.00;;;-0.78;86.33
10978;BME280;5542;48.272;10.794;2023-02-16T02:07:18;96666.13;;;-0.84;86.44
10978;BME280;5542;48.272;10.794;2023-02-16T02:09:54;96663.53;;;-0.84;86.86
10978;BME280;5542;48.272;10.794;2023-02-16T02:12:26;96654.00;;;-0.83;86.42
10978;BME280;5542;48.272;10.794;2023-02-16T02:14:54;96664.06;;;-0.90;86.59
10978;BME280;5542;48.272;10.794;2023-02-16T02:17:21;96657.25;;;-1.00;86.80
10978;BME280;5542;48.272;10.794;2023-02-16T02:19:57;96658.34;;;-1.03;87.29
10978;BME280;5542;48.272;10.794;2023-02-16T02:29:06;96650.44;;;-1.01;87.04
10978;BME280;5542;48.272;10.794;2023-02-16T02:31:46;96649.78;;;-1.04;87.40
10978;BME280;5542;48.272;10.794;2023-02-16T02:34:22;96648.97;;;-1.04;86.96
10978;BME280;5542;48.272;10.794;2023-02-16T02:36:59;96660.50;;;-1.08;87.28
10978;BME280;5542;48.272;10.794;2023-02-16T02:39:33;96651.25;;;-1.11;87.32
10978;BME280;5542;48.272;10.794;2023-02-16T02:42:09;96654.53;;;-1.09;87.26
10978;BME280;5542;48.272;10.794;2023-02-16T02:44:43;96652.75;;;-1.08;86.94
10978;BME280;5542;48.272;10.794;2023-02-16T02:47:12;96648.09;;;-1.14;87.21
10978;BME280;5542;48.272;10.794;2023-02-16T02:49:38;96643.91;;;-1.15;87.41
10978;BME280;5542;48.272;10.794;2023-02-16T02:52:06;96645.94;;;-1.19;87.01
10978;BME280;5542;48.272;10.794;2023-02-16T02:54:37;96644.19;;;-1.18;87.08
10978;BME280;5542;48.272;10.794;2023-02-16T02:57:26;96646.22;;;-1.22;86.78
10978;BME280;5542;48.272;10.794;2023-02-16T03:00:17;96647.28;;;-1.24;86.52
10978;BME280;5542;48.272;10.794;2023-02-16T03:03:05;96655.31;;;-1.27;86.53
10978;BME280;5542;48.272;10.794;2023-02-16T03:05:36;96650.78;;;-1.35;86.59
10978;BME280;5542;48.272;10.794;2023-02-16T03:08:08;96660.16;;;-1.34;86.24
10978;BME280;5542;48.272;10.794;2023-02-16T03:10:41;96660.16;;;-1.34;86.90
10978;BME280;5542;48.272;10.794;2023-02-16T03:13:30;96655.00;;;-1.34;86.51
10978;BME280;5542;48.272;10.794;2023-02-16T03:16:03;96660.16;;;-1.34;87.07
10978;BME280;5542;48.272;10.794;2023-02-16T03:18:32;96657.47;;;-1.33;86.86
10978;BME280;5542;48.272;10.794;2023-02-16T03:21:17;96661.91;;;-1.35;86.87
10978;BME280;5542;48.272;10.794;2023-02-16T03:24:04;96656.63;;;-1.33;87.00
10978;BME280;5542;48.272;10.794;2023-02-16T03:26:50;96665.47;;;-1.36;86.98
10978;BME280;5542;48.272;10.794;2023-02-16T03:29:36;96652.56;;;-1.36;87.05
10978;BME280;5542;48.272;10.794;2023-02-16T03:32:04;96652.31;;;-1.33;86.78
10978;BME280;5542;48.272;10.794;2023-02-16T03:34:32;96652.31;;;-1.33;86.39
10978;BME280;5542;48.272;10.794;2023-02-16T03:37:01;96651.84;;;-1.38;86.47
10978;BME280;5542;48.272;10.794;2023-02-16T03:39:28;96649.56;;;-1.41;86.45
10978;BME280;5542;48.272;10.794;2023-02-16T03:41:56;96653.34;;;-1.45;86.75
10978;BME280;5542;48.272;10.794;2023-02-16T03:44:23;96650.50;;;-1.42;87.03
10978;BME280;5542;48.272;10.794;2023-02-16T03:46:50;96659.88;;;-1.41;86.57
10978;BME280;5542;48.272;10.794;2023-02-16T03:49:19;96652.13;;;-1.41;86.94
10978;BME280;5542;48.272;10.794;2023-02-16T03:51:46;96655.28;;;-1.37;86.63
10978;BME280;5542;48.272;10.794;2023-02-16T03:54:13;96650.13;;;-1.37;86.02
10978;BME280;5542;48.272;10.794;2023-02-16T03:56:39;96658.78;;;-1.38;85.97
10978;BME280;5542;48.272;10.794;2023-02-16T03:59:06;96654.16;;;-1.44;85.81
10978;BME280;5542;48.272;10.794;2023-02-16T04:01:32;96662.84;;;-1.45;85.93
10978;BME280;5542;48.272;10.794;2023-02-16T04:03:59;96660.66;;;-1.50;86.16
10978;BME280;5542;48.272;10.794;2023-02-16T04:06:27;96658.22;;;-1.51;85.95
10978;BME280;5542;48.272;10.794;2023-02-16T04:08:53;96661.63;;;-1.51;86.40
10978;BME280;5542;48.272;10.794;2023-02-16T04:11:20;96666.78;;;-1.51;86.03
10978;BME280;5542;48.272;10.794;2023-02-16T04:14:04;96668.66;;;-1.53;86.48
10978;BME280;5542;48.272;10.794;2023-02-16T04:16:31;96669.59;;;-1.54;86.14
10978;BME280;5542;48.272;10.794;2023-02-16T04:18:57;96664.56;;;-1.56;86.44
10978;BME280;5542;48.272;10.794;2023-02-16T04:21:24;96664.56;;;-1.56;86.41
10978;BME280;5542;48.272;10.794;2023-02-16T04:23:52;96668.94;;;-1.56;86.22
10978;BME280;5542;48.272;10.794;2023-02-16T04:26:18;96657.78;;;-1.57;86.06
10978;BME280;5542;48.272;10.794;2023-02-16T04:28:45;96658.72;;;-1.58;86.12
10978;BME280;5542;48.272;10.794;2023-02-16T04:31:11;96659.41;;;-1.56;85.79
10978;BME280;5542;48.272;10.794;2023-02-16T04:33:38;96662.25;;;-1.59;85.89
10978;BME280;5542;48.272;10.794;2023-02-16T04:36:06;96664.00;;;-1.59;85.79
10978;BME280;5542;48.272;10.794;2023-02-16T04:38:32;96664.97;;;-1.60;86.17
10978;BME280;5542;48.272;10.794;2023-02-16T04:41:00;96664.16;;;-1.61;86.01
10978;BME280;5542;48.272;10.794;2023-02-16T04:43:27;96666.31;;;-1.66;86.07
10978;BME280;5542;48.272;10.794;2023-02-16T04:45:53;96658.44;;;-1.64;86.06
10978;BME280;5542;48.272;10.794;2023-02-16T04:48:20;96657.34;;;-1.62;86.27
10978;BME280;5542;48.272;10.794;2023-02-16T04:50:46;96660.06;;;-1.63;86.09
10978;BME280;5542;48.272;10.794;2023-02-16T04:53:13;96656.66;;;-1.64;86.00
10978;BME280;5542;48.272;10.794;2023-02-16T04:55:44;96663.84;;;-1.67;85.83
10978;BME280;5542;48.272;10.794;2023-02-16T04:58:12;96665.47;;;-1.66;86.09
10978;BME280;5542;48.272;10.794;2023-02-16T05:00:39;96667.13;;;-1.65;85.76
10978;BME280;5542;48.272;10.794;2023-02-16T05:03:05;96661.00;;;-1.64;85.76
10978;BME280;5542;48.272;10.794;2023-02-16T05:05:32;96661.97;;;-1.65;85.81
10978;BME280;5542;48.272;10.794;2023-02-16T05:07:59;96658.56;;;-1.66;85.74
10978;BME280;5542;48.272;10.794;2023-02-16T05:10:26;96661.97;;;-1.65;85.73
10978;BME280;5542;48.272;10.794;2023-02-16T05:12:52;96667.13;;;-1.65;85.53
10978;BME280;5542;48.272;10.794;2023-02-16T05:15:38;96662.22;;;-1.68;85.74
10978;BME280;5542;48.272;10.794;2023-02-16T05:18:04;96666.31;;;-1.66;85.38
10978;BME280;5542;48.272;10.794;2023-02-16T05:20:31;96668.03;;;-1.66;85.48
10978;BME280;5542;48.272;10.794;2023-02-16T05:23:15;96671.56;;;-1.67;85.39
10978;BME280;5542;48.272;10.794;2023-02-16T05:25:41;96670.75;;;-1.68;85.79
10978;BME280;5542;48.272;10.794;2023-02-16T05:28:08;96674.84;;;-1.65;85.86
10978;BME280;5542;48.272;10.794;2023-02-16T05:30:34;96682.59;;;-1.65;85.42
10978;BME280;5542;48.272;10.794;2023-02-16T05:33:02;96680.84;;;-1.65;85.37
10978;BME280;5542;48.272;10.794;2023-02-16T05:35:29;96678.50;;;-1.68;85.22
10978;BME280;5542;48.272;10.794;2023-02-16T05:37:55;96682.59;;;-1.65;85.50
10978;BME280;5542;48.272;10.794;2023-02-16T05:40:22;96680.00;;;-1.65;85.35
10978;BME280;5542;48.272;10.794;2023-02-16T05:42:51;96685.19;;;-1.65;85.06
10978;BME280;5542;48.272;10.794;2023-02-16T05:45:18;96688.00;;;-1.68;85.54
10978;BME280;5542;48.272;10.794;2023-02-16T05:47:45;96686.25;;;-1.68;85.61
10978;BME280;5542;48.272;10.794;2023-02-16T05:50:14;96690.72;;;-1.70;85.70
10978;BME280;5542;48.272;10.794;2023-02-16T05:52:40;96699.28;;;-1.69;85.76
10978;BME280;5542;48.272;10.794;2023-02-16T05:55:07;96698.31;;;-1.68;85.86
10978;BME280;5542;48.272;10.794;2023-02-16T05:57:33;96699.00;;;-1.66;85.96
10978;BME280;5542;48.272;10.794;2023-02-16T06:00:00;96700.91;;;-1.68;85.81
10978;BME280;5542;48.272;10.794;2023-02-16T06:02:27;96701.84;;;-1.69;85.99
10978;BME280;5542;48.272;10.794;2023-02-16T06:04:54;96707.81;;;-1.69;85.79
10978;BME280;5542;48.272;10.794;2023-02-16T06:07:22;96700.22;;;-1.70;86.15
10978;BME280;5542;48.272;10.794;2023-02-16T06:09:48;96716.75;;;-1.73;86.00
10978;BME280;5542;48.272;10.794;2023-02-16T06:12:15;96722.72;;;-1.72;85.91
10978;BME280;5542;48.272;10.794;2023-02-16T06:14:41;96720.84;;;-1.70;85.81
10978;BME280;5542;48.272;10.794;2023-02-16T06:17:08;96722.63;;;-1.71;85.76
10978;BME280;5542;48.272;10.794;2023-02-16T06:19:34;96718.28;;;-1.70;86.00
10978;BME280;5542;48.272;10.794;2023-02-16T06:22:01;96730.22;;;-1.69;86.05
10978;BME280;5542;48.272;10.794;2023-02-16T06:24:29;96726.00;;;-1.70;85.89
10978;BME280;5542;48.272;10.794;2023-02-16T06:26:55;96728.47;;;-1.69;85.65
10978;BME280;5542;48.272;10.794;2023-02-16T06:29:22;96728.59;;;-1.70;85.93
10978;BME280;5542;48.272;10.794;2023-02-16T06:31:49;96739.59;;;-1.68;85.87
10978;BME280;5542;48.272;10.794;2023-02-16T06:34:15;96729.50;;;-1.71;85.98
10978;BME280;5542;48.272;10.794;2023-02-16T06:36:42;96728.69;;;-1.72;85.83
10978;BME280;5542;48.272;10.794;2023-02-16T06:39:08;96721.78;;;-1.71;86.17
10978;BME280;5542;48.272;10.794;2023-02-16T06:41:36;96727.38;;;-1.66;86.15
10978;BME280;5542;48.272;10.794;2023-02-16T06:44:05;96729.28;;;-1.68;86.31
10978;BME280;5542;48.272;10.794;2023-02-16T06:46:32;96733.75;;;-1.70;86.36
10978;BME280;5542;48.272;10.794;2023-02-16T06:48:59;96734.56;;;-1.70;86.45
10978;BME280;5542;48.272;10.794;2023-02-16T06:51:26;96727.88;;;-1.72;86.48
10978;BME280;5542;48.272;10.794;2023-02-16T06:53:53;96734.66;;;-1.71;86.89
10978;BME280;5542;48.272;10.794;2023-02-16T06:56:19;96731.03;;;-1.69;86.96
10978;BME280;5542;48.272;10.794;2023-02-16T06:58:47;96731.47;;;-1.64;86.88
10978;BME280;5542;48.272;10.794;2023-02-16T07:01:15;96738.00;;;-1.60;87.37
10978;BME280;5542;48.272;10.794;2023-02-16T07:03:47;96726.88;;;-1.60;87.13
10978;BME280;5542;48.272;10.794;2023-02-16T07:06:13;96738.59;;;-1.56;87.21
10978;BME280;5542;48.272;10.794;2023-02-16T07:08:40;96743.47;;;-1.53;87.83
10978;BME280;5542;48.272;10.794;2023-02-16T07:11:06;96747.44;;;-1.49;87.69
10978;BME280;5542;48.272;10.794;2023-02-16T07:13:33;96740.41;;;-1.47;88.10
10978;BME280;5542;48.272;10.794;2023-02-16T07:16:02;96751.53;;;-1.46;88.00
10978;BME280;5542;48.272;10.794;2023-02-16T07:18:29;96750.88;;;-1.39;88.31
10978;BME280;5542;48.272;10.794;2023-02-16T07:20:56;96741.13;;;-1.35;88.25
10978;BME280;5542;48.272;10.794;2023-02-16T07:23:22;96749.03;;;-1.27;88.89
10978;BME280;5542;48.272;10.794;2023-02-16T07:25:49;96747.84;;;-1.23;89.13
10978;BME280;5542;48.272;10.794;2023-02-16T07:28:16;96755.84;;;-1.16;89.69
10978;BME280;5542;48.272;10.794;2023-02-16T07:30:42;96753.31;;;-1.07;89.94
10978;BME280;5542;48.272;10.794;2023-02-16T07:33:10;96759.06;;;-0.93;90.31
10978;BME280;5542;48.272;10.794;2023-02-16T07:35:37;96749.31;;;-0.80;91.03
10978;BME280;5542;48.272;10.794;2023-02-16T07:38:04;96753.72;;;-0.61;91.46
10978;BME280;5542;48.272;10.794;2023-02-16T07:40:31;96752.53;;;-0.38;92.08
10978;BME280;5542;48.272;10.794;2023-02-16T07:42:58;96756.19;;;-0.11;92.06
10978;BME280;5542;48.272;10.794;2023-02-16T07:45:25;96753.03;;;0.24;91.59
10978;BME280;5542;48.272;10.794;2023-02-16T07:47:51;96754.84;;;0.61;90.65
10978;BME280;5542;48.272;10.794;2023-02-16T07:50:19;96751.53;;;0.78;89.42
10978;BME280;5542;48.272;10.794;2023-02-16T07:52:46;96758.28;;;0.89;89.03
10978;BME280;5542;48.272;10.794;2023-02-16T07:55:12;96756.72;;;1.06;88.42
10978;BME280;5542;48.272;10.794;2023-02-16T07:57:39;96754.91;;;1.16;88.35
10978;BME280;5542;48.272;10.794;2023-02-16T08:00:07;96751.13;;;1.28;87.67
10978;BME280;5542;48.272;10.794;2023-02-16T08:02:34;96757.22;;;1.37;87.32
10978;BME280;5542;48.272;10.794;2023-02-16T08:05:01;96758.56;;;1.41;87.12
10978;BME280;5542;48.272;10.794;2023-02-16T08:07:29;96758.81;;;1.47;86.94
10978;BME280;5542;48.272;10.794;2023-02-16T08:09:55;96760.22;;;1.60;86.54
10978;BME280;5542;48.272;10.794;2023-02-16T08:12:22;96763.00;;;1.76;86.76
10978;BME280;5542;48.272;10.794;2023-02-16T08:14:49;96767.34;;;1.93;87.10
10978;BME280;5542;48.272;10.794;2023-02-16T08:17:15;96759.63;;;2.19;86.58
10978;BME280;5542;48.272;10.794;2023-02-16T08:19:42;96765.72;;;2.54;86.08
10978;BME280;5542;48.272;10.794;2023-02-16T08:22:08;96764.13;;;2.87;85.32
10978;BME280;5542;48.272;10.794;2023-02-16T08:24:37;96762.53;;;3.37;84.71
10978;BME280;5542;48.272;10.794;2023-02-16T08:27:04;96764.28;;;3.87;81.35
10978;BME280;5542;48.272;10.794;2023-02-16T08:29:32;96758.28;;;4.27;77.44
10978;BME280;5542;48.272;10.794;2023-02-16T08:31:58;96761.03;;;4.66;75.25
10978;BME280;5542;48.272;10.794;2023-02-16T08:34:26;96761.91;;;4.98;72.61
10978;BME280;5542;48.272;10.794;2023-02-16T08:36:54;96753.81;;;5.32;72.29
10978;BME280;5542;48.272;10.794;2023-02-16T08:39:22;96752.56;;;5.82;69.46
10978;BME280;5542;48.272;10.794;2023-02-16T08:41:52;96748.00;;;6.30;66.34
10978;BME280;5542;48.272;10.794;2023-02-16T08:44:20;96752.16;;;6.91;62.44
10978;BME280;5542;48.272;10.794;2023-02-16T08:46:49;96749.44;;;7.00;62.38
10978;BME280;5542;48.272;10.794;2023-02-16T08:49:17;96749.50;;;7.21;60.48
10978;BME280;5542;48.272;10.794;2023-02-16T08:51:48;96739.94;;;7.28;59.21
10978;BME280;5542;48.272;10.794;2023-02-16T08:54:18;96750.16;;;7.23;59.75
10978;BME280;5542;48.272;10.794;2023-02-16T08:56:46;96746.91;;;6.91;62.06
10978;BME280;5542;48.272;10.794;2023-02-16T08:59:16;96747.09;;;7.05;59.52
10978;BME280;5542;48.272;10.794;2023-02-16T09:01:44;96748.19;;;6.96;60.00
10978;BME280;5542;48.272;10.794;2023-02-16T09:04:10;96747.63;;;6.71;61.43
10978;BME280;5542;48.272;10.794;2023-02-16T09:06:38;96749.25;;;7.16;60.92
10978;BME280;5542;48.272;10.794;2023-02-16T09:09:06;96745.94;;;7.22;60.99
10978;BME280;5542;48.272;10.794;2023-02-16T09:11:33;96743.66;;;7.70;58.02
10978;BME280;5542;48.272;10.794;2023-02-16T09:14:00;96747.91;;;7.71;60.31
10978;BME280;5542;48.272;10.794;2023-02-16T09:16:28;96738.88;;;7.95;58.70
10978;BME280;5542;48.272;10.794;2023-02-16T09:18:58;96740.69;;;8.16;57.33
10978;BME280;5542;48.272;10.794;2023-02-16T09:21:27;96733.75;;;8.30;56.32
10978;BME280;5542;48.272;10.794;2023-02-16T09:23:57;96740.34;;;8.40;55.87
10978;BME280;5542;48.272;10.794;2023-02-16T09:26:25;96740.81;;;8.29;56.22
10978;BME280;5542;48.272;10.794;2023-02-16T09:28:53;96735.16;;;8.54;54.43
10978;BME280;5542;48.272;10.794;2023-02-16T09:31:21;96739.09;;;8.64;55.79
10978;BME280;5542;48.272;10.794;2023-02-16T09:33:53;96729.66;;;9.05;52.63
10978;BME280;5542;48.272;10.794;2023-02-16T09:36:20;96730.03;;;9.02;52.12
10978;BME280;5542;48.272;10.794;2023-02-16T09:38:46;96746.66;;;8.53;55.35
10978;BME280;5542;48.272;10.794;2023-02-16T09:41:26;96739.47;;;8.61;54.23
10978;BME280;5542;48.272;10.794;2023-02-16T09:43:58;96743.03;;;8.82;53.29
10978;BME280;5542;48.272;10.794;2023-02-16T09:46:29;96739.22;;;8.84;53.19
10978;BME280;5542;48.272;10.794;2023-02-16T09:49:00;96742.31;;;8.60;54.48
10978;BME280;5542;48.272;10.794;2023-02-16T09:51:32;96733.88;;;8.64;53.64
10978;BME280;5542;48.272;10.794;2023-02-16T09:54:05;96736.97;;;8.75;53.20
10978;BME280;5542;48.272;10.794;2023-02-16T09:56:40;96742.44;;;8.80;52.84
10978;BME280;5542;48.272;10.794;2023-02-16T09:59:16;96745.41;;;8.70;53.05
10978;BME280;5542;48.272;10.794;2023-02-16T10:01:55;96742.56;;;8.71;52.90
10978;BME280;5542;48.272;10.794;2023-02-16T10:04:35;96736.31;;;8.72;52.80
10978;BME280;5542;48.272;10.794;2023-02-16T10:07:14;96741.06;;;8.90;52.33
10978;BME280;5542;48.272;10.794;2023-02-16T10:09:46;96750.47;;;8.78;52.54
10978;BME280;5542;48.272;10.794;2023-02-16T10:12:19;96741.94;;;8.97;51.53
10978;BME280;5542;48.272;10.794;2023-02-16T10:14:49;96737.53;;;9.05;51.29
10978;BME280;5542;48.272;10.794;2023-02-16T10:19:49;96738.34;;;9.05;50.58
10978;BME280;5542;48.272;10.794;2023-02-16T10:22:24;96743.84;;;8.82;52.16
10978;BME280;5542;48.272;10.794;2023-02-16T10:24:58;96745.66;;;8.82;51.93
10978;BME280;5542;48.272;10.794;2023-02-16T10:27:31;96748.91;;;8.84;51.26
10978;BME280;5542;48.272;10.794;2023-02-16T10:30:00;96751.09;;;8.80;52.46
10978;BME280;5542;48.272;10.794;2023-02-16T10:32:31;96750.41;;;8.93;52.06
10978;BME280;5542;48.272;10.794;2023-02-16T10:35:09;96749.16;;;9.30;50.77
10978;BME280;5542;48.272;10.794;2023-02-16T10:37:50;96740.97;;;9.46;49.90
10978;BME280;5542;48.272;10.794;2023-02-16T10:40:34;96734.63;;;9.28;51.04
10978;BME280;5542;48.272;10.794;2023-02-16T10:43:10;96739.09;;;9.34;50.46
10978;BME280;5542;48.272;10.794;2023-02-16T10:45:45;96725.38;;;9.38;49.81
10978;BME280;5542;48.272;10.794;2023-02-16T10:48:12;96725.97;;;9.34;49.65
10978;BME280;5542;48.272;10.794;2023-02-16T10:50:42;96716.59;;;9.66;47.78
10978;BME280;5542;48.272;10.794;2023-02-16T10:53:13;96719.31;;;9.44;49.37
10978;BME280;5542;48.272;10.794;2023-02-16T10:55:40;96727.69;;;9.13;50.33
10978;BME280;5542;48.272;10.794;2023-02-16T10:58:15;96727.19;;;9.44;50.51
10978;BME280;5542;48.272;10.794;2023-02-16T11:00:49;96720.81;;;9.60;49.46
10978;BME280;5542;48.272;10.794;2023-02-16T11:03:18;96722.38;;;9.41;50.50
10978;BME280;5542;48.272;10.794;2023-02-16T11:05:49;96727.66;;;9.55;49.30
10978;BME280;5542;48.272;10.794;2023-02-16T11:08:17;96725.84;;;9.62;48.73
10978;BME280;5542;48.272;10.794;2023-02-16T11:10:46;96716.78;;;9.64;48.73
10978;BME280;5542;48.272;10.794;2023-02-16T11:13:25;96715.97;;;9.64;48.94
10978;BME280;5542;48.272;10.794;2023-02-16T11:15:55;96704.63;;;9.57;48.72
10978;BME280;5542;48.272;10.794;2023-02-16T11:18:28;96708.44;;;9.54;50.18
10978;BME280;5542;48.272;10.794;2023-02-16T11:20:59;96696.63;;;9.91;48.82
10978;BME280;5542;48.272;10.794;2023-02-16T11:23:29;96698.88;;;10.08;48.77
10978;BME280;5542;48.272;10.794;2023-02-16T11:25:58;96696.44;;;9.99;48.92
10978;BME280;5542;48.272;10.794;2023-02-16T11:28:30;96688.75;;;10.05;48.07
10978;BME280;5542;48.272;10.794;2023-02-16T11:31:00;96684.94;;;10.34;46.54
10978;BME280;5542;48.272;10.794;2023-02-16T11:33:28;96679.72;;;10.27;47.10
10978;BME280;5542;48.272;10.794;2023-02-16T11:35:56;96679.09;;;10.25;47.48
10978;BME280;5542;48.272;10.794;2023-02-16T11:38:28;96683.31;;;10.19;47.65
10978;BME280;5542;48.272;10.794;2023-02-16T11:40:57;96665.31;;;10.43;45.76
10978;BME280;5542;48.272;10.794;2023-02-16T11:43:26;96656.22;;;10.59;43.73
10978;BME280;5542;48.272;10.794;2023-02-16T11:45:58;96663.09;;;10.46;43.81
10978;BME280;5542;48.272;10.794;2023-02-16T11:48:28;96656.44;;;10.37;44.34
10978;BME280;5542;48.272;10.794;2023-02-16T11:50:58;96658.44;;;10.42;43.84
10978;BME280;5542;48.272;10.794;2023-02-16T11:53:29;96655.59;;;10.43;45.33
10978;BME280;5542;48.272;10.794;2023-02-16T11:56:21;96650.72;;;10.54;45.66
10978;BME280;5542;48.272;10.794;2023-02-16T11:59:06;96639.75;;;10.76;44.88
10978;BME280;5542;48.272;10.794;2023-02-16T12:04:48;96629.66;;;10.67;43.89
10978;BME280;5542;48.272;10.794;2023-02-16T12:07:27;96633.00;;;11.00;42.99
10978;BME280;5542;48.272;10.794;2023-02-16T12:10:02;96632.63;;;10.97;43.97
10978;BME280;5542;48.272;10.794;2023-02-16T12:12:32;96624.53;;;10.98;42.92
10978;BME280;5542;48.272;10.794;2023-02-16T12:15:09;96621.50;;;10.95;43.32
10978;BME280;5542;48.272;10.794;2023-02-16T12:17:46;96620.59;;;11.14;41.80
10978;BME280;5542;48.272;10.794;2023-02-16T12:20:32;96619.31;;;11.30;41.60
10978;BME280;5542;48.272;10.794;2023-02-16T12:23:11;96617.97;;;11.14;41.32
10978;BME280;5542;48.272;10.794;2023-02-16T12:25:49;96608.69;;;11.12;41.64
10978;BME280;5542;48.272;10.794;2023-02-16T12:28:26;96614.13;;;11.17;41.47
10978;BME280;5542;48.272;10.794;2023-02-16T12:31:11;96600.34;;;11.15;41.71
10978;BME280;5542;48.272;10.794;2023-02-16T12:33:49;96596.50;;;11.11;40.70
10978;BME280;5542;48.272;10.794;2023-02-16T12:36:28;96593.84;;;11.17;41.75
10978;BME280;5542;48.272;10.794;2023-02-16T12:39:02;96596.53;;;11.42;41.05
10978;BME280;5542;48.272;10.794;2023-02-16T12:41:42;96583.00;;;11.39;39.53
10978;BME280;5542;48.272;10.794;2023-02-16T12:44:15;96582.56;;;11.42;40.66
10978;BME280;5542;48.272;10.794;2023-02-16T12:46:45;96581.13;;;11.46;40.25
10978;BME280;5542;48.272;10.794;2023-02-16T12:49:16;96572.94;;;11.61;39.79
10978;BME280;5542;48.272;10.794;2023-02-16T12:51:51;96577.00;;;11.57;40.63
10978;BME280;5542;48.272;10.794;2023-02-16T12:54:22;96566.16;;;11.71;37.03
10978;BME280;5542;48.272;10.794;2023-02-16T12:56:58;96568.75;;;11.78;39.70
10978;BME280;5542;48.272;10.794;2023-02-16T12:59:33;96568.13;;;11.76;37.52
10978;BME280;5542;48.272;10.794;2023-02-16T13:02:03;96560.34;;;11.63;38.13
10978;BME280;5542;48.272;10.794;2023-02-16T13:04:41;96556.78;;;11.82;38.77
10978;BME280;5542;48.272;10.794;2023-02-16T13:07:14;96554.81;;;11.96;39.14
10978;BME280;5542;48.272;10.794;2023-02-16T13:09:50;96549.28;;;12.04;37.70
10978;BME280;5542;48.272;10.794;2023-02-16T13:12:25;96546.72;;;11.97;36.08
10978;BME280;5542;48.272;10.794;2023-02-16T13:15:00;96549.06;;;12.05;36.58
10978;BME280;5542;48.272;10.794;2023-02-16T13:17:32;96547.06;;;12.01;37.00
10978;BME280;5542;48.272;10.794;2023-02-16T13:19:59;96546.03;;;11.84;37.91
10978;BME280;5542;48.272;10.794;2023-02-16T13:25:49;96538.00;;;12.15;35.93
10978;BME280;5542;48.272;10.794;2023-02-16T13:28:41;96545.94;;;12.34;35.54
10978;BME280;5542;48.272;10.794;2023-02-16T13:31:20;96541.78;;;12.44;34.11
10978;BME280;5542;48.272;10.794;2023-02-16T13:34:07;96535.75;;;12.19;34.70
10978;BME280;5542;48.272;10.794;2023-02-16T13:36:52;96537.53;;;12.25;35.04
10978;BME280;5542;48.272;10.794;2023-02-16T13:39:41;96544.13;;;12.16;35.94